Terminal Aerodrome Forecast
Issued by NWS

Current Version | Previous Version | Graphics & Text | Print | Product List | Glossary On
Versions: 1 2 3 4 5 6 7 8 9 10 11 12 13 14 15 16 17 18 19 20 21 22 23 24 25 26 27 28
695
FTUS41 KILN 192244 AAC
TAFLCK
TAF AMD
KLCK 192244Z 1923/2018 35010G20KT P6SM -TSRA BKN035CB BKN090
     FM200100 04007KT P6SM BKN070
     FM201000 05006KT P6SM BKN012
     FM201500 13005KT P6SM BKN045=

USA.gov is the U.S. government's official web portal to all federal, state and local government web resources and services.